»·PEaware :: N4VY KOLS-KPHX

N4VY :: KOLS-KPHX

FLIGHT INFORMATION

Flight Status: Arrived
Operator: Privately registered:
United States
More flights under this callsign
Pilot: Jeremy H. (30118)
Aircraft: CESSNA 172 SKYHAWK
(C172)
More flights by this aircraft type
Origin: KOLS Nogales Intl
United States
Destination: KPHX Phoenix Sky Harbor Intl
United States
More flights between these airports :: More routes between these airports
Route:
File this flight plan on PilotEdge
Remarks:
Altitude:
(Current/Filed)
6,500ft
Speed:
(Current/Filed)
110kts
Departed: 05-Oct-20 10:14 AM
Arrived: 05-Oct-20 11:26 AM
Distance/Time
Traveled:
134nm/1:11
Distance/Time
To Go:
Arrived

Flight Plot

Page will automatically refresh every two minutes.

Flight plan parsing failed; only flown route is shown


Map Options




Map Legend


Flown Route
Filed Route
Departure Airport
Arrival Airport
Navaid (VOR, NDB)
Fix

Horizontal Profiles

Position Reports

Time Latitude Longitude Heading Altitude Ground
Speed
05-Oct-20 10:11 31.420701 -110.844292 226 3915ft 0kts
05-Oct-20 10:12 31.420152 -110.844957 222 3912ft 34kts
05-Oct-20 10:13 31.409554 -110.864923 262 4307ft 76kts
05-Oct-20 10:14 31.416737 -110.882589 339 4814ft 82kts
05-Oct-20 10:15 31.440091 -110.893686 336 5311ft 89kts
05-Oct-20 10:16 31.460984 -110.904632 335 5995ft 74kts
05-Oct-20 10:17 31.478172 -110.913852 335 6528ft 74kts
05-Oct-20 10:18 31.504005 -110.927927 335 6506ft 118kts
05-Oct-20 10:19 31.534737 -110.944764 335 6504ft 123kts
05-Oct-20 10:20 31.566065 -110.961997 334 6504ft 124kts
05-Oct-20 10:21 31.597336 -110.979227 334 6504ft 124kts
05-Oct-20 10:22 31.628576 -110.996457 334 6504ft 124kts
05-Oct-20 10:23 31.659943 -111.013769 334 6504ft 124kts
05-Oct-20 10:24 31.691249 -111.031063 334 6501ft 124kts
05-Oct-20 10:25 31.722635 -111.048414 335 6487ft 125kts
05-Oct-20 10:26 31.754005 -111.065767 335 6473ft 124kts
05-Oct-20 10:27 31.785453 -111.083176 335 6458ft 124kts
05-Oct-20 10:28 31.816704 -111.100489 336 6444ft 124kts
05-Oct-20 10:29 31.848430 -111.118045 334 6432ft 129kts
05-Oct-20 10:30 31.881156 -111.136230 334 6431ft 130kts
05-Oct-20 10:31 31.914043 -111.154494 334 6431ft 131kts
05-Oct-20 10:32 31.946991 -111.172803 334 6431ft 131kts
05-Oct-20 10:33 31.979898 -111.191104 334 6431ft 131kts
05-Oct-20 10:35 32.012753 -111.209390 334 6431ft 131kts
05-Oct-20 10:36 32.045694 -111.227737 334 6431ft 131kts
05-Oct-20 10:37 32.078620 -111.246092 334 6431ft 131kts
05-Oct-20 10:38 32.111672 -111.264531 334 6430ft 131kts
05-Oct-20 10:39 32.144507 -111.282862 334 6430ft 131kts
05-Oct-20 10:40 32.177292 -111.301223 336 6427ft 127kts
05-Oct-20 10:41 32.208940 -111.318882 335 6416ft 124kts
05-Oct-20 10:42 32.240196 -111.336368 335 6405ft 124kts
05-Oct-20 10:43 32.271426 -111.353862 334 6394ft 124kts
05-Oct-20 10:44 32.302647 -111.371365 334 6383ft 124kts
05-Oct-20 10:45 32.334081 -111.389004 334 6376ft 125kts
05-Oct-20 10:46 32.365404 -111.406593 334 6376ft 124kts
05-Oct-20 10:47 32.396727 -111.424194 334 6376ft 124kts
05-Oct-20 10:48 32.428146 -111.441862 334 6376ft 124kts
05-Oct-20 10:49 32.459460 -111.459485 334 6376ft 124kts
05-Oct-20 10:50 32.490689 -111.477073 334 6375ft 124kts
05-Oct-20 10:51 32.522024 -111.494739 334 6373ft 124kts
05-Oct-20 10:51 32.548017 -111.509403 334 6371ft 124kts
05-Oct-20 10:52 32.579206 -111.527004 334 6368ft 123kts
05-Oct-20 10:54 32.615475 -111.547494 335 6364ft 123kts
05-Oct-20 10:54 32.641136 -111.562007 335 6361ft 122kts
05-Oct-20 10:55 32.671983 -111.579459 335 6366ft 121kts
05-Oct-20 10:57 32.706870 -111.599217 335 6458ft 121kts
05-Oct-20 10:57 32.732075 -111.613514 335 6498ft 120kts
05-Oct-20 10:58 32.762427 -111.630711 335 6497ft 121kts
05-Oct-20 10:59 32.792887 -111.648047 335 6497ft 121kts
05-Oct-20 11:00 32.823423 -111.665341 335 6497ft 121kts
05-Oct-20 11:01 32.854016 -111.682716 335 6497ft 121kts
05-Oct-20 11:02 32.884392 -111.699992 335 6497ft 121kts
05-Oct-20 11:03 32.915151 -111.717498 335 6383ft 129kts
05-Oct-20 11:04 32.948834 -111.736668 335 5885ft 137kts
05-Oct-20 11:05 32.983236 -111.756272 335 5379ft 136kts
05-Oct-20 11:06 33.017667 -111.774837 336 4874ft 135kts
05-Oct-20 11:07 33.049471 -111.792674 333 4514ft 129kts
05-Oct-20 11:08 33.080770 -111.810564 331 4505ft 119kts
05-Oct-20 11:09 33.110293 -111.827417 330 4508ft 118kts
05-Oct-20 11:10 33.154541 -111.852716 330 4505ft 118kts
05-Oct-20 11:11 33.184211 -111.869700 330 4504ft 118kts
05-Oct-20 11:12 33.214074 -111.886103 334 4503ft 117kts
05-Oct-20 11:13 33.243656 -111.902247 331 4501ft 116kts
05-Oct-20 11:14 33.272716 -111.918898 332 4499ft 115kts
05-Oct-20 11:15 33.301077 -111.935219 333 4498ft 115kts
05-Oct-20 11:16 33.329553 -111.951534 335 4379ft 123kts
05-Oct-20 11:17 33.361637 -111.969957 336 3888ft 131kts
05-Oct-20 11:18 33.390927 -111.986767 336 3104ft 131kts
05-Oct-20 11:19 33.409927 -112.012366 263 2566ft 123kts
05-Oct-20 11:20 33.405192 -112.053763 266 1913ft 124kts
05-Oct-20 11:21 33.412768 -112.078125 354 1720ft 72kts
05-Oct-20 11:22 33.427885 -112.067871 62 1517ft 70kts
05-Oct-20 11:23 33.429065 -112.045260 92 1361ft 77kts
05-Oct-20 11:24 33.428855 -112.022377 90 1113ft 54kts
05-Oct-20 11:25 33.427606 -112.017247 220 1113ft 0kts
05-Oct-20 11:26 33.426518 -112.018445 328 1113ft 0kts
05-Oct-20 11:27 33.426518 -112.018445 328 1113ft 0kts

Navigation Log

Ident Type
Flight plan parsing failed, navigation log unavailable